createdAt,value
2022-12-16T00:53:47.759Z,51.90
2022-12-16T00:54:49.502Z,53.60
2022-12-16T00:56:00.405Z,54.60
2022-12-16T00:57:02.011Z,53.50
2022-12-16T00:58:03.625Z,50.10
2022-12-16T00:59:05.255Z,49.10
2022-12-16T01:00:12.273Z,53.80
2022-12-16T01:01:14.606Z,50.80
2022-12-16T01:02:16.390Z,54.10
2022-12-16T01:03:33.323Z,54.30
2022-12-16T01:04:35.055Z,54.70
2022-12-16T01:05:38.007Z,53.10
2022-12-16T01:06:40.162Z,52.40
2022-12-16T01:07:42.418Z,54.30
2022-12-16T01:08:50.554Z,56.30
2022-12-16T01:09:54.440Z,55.20
2022-12-16T01:10:57.344Z,57.10
2022-12-16T01:11:59.093Z,56.10
2022-12-16T01:13:00.892Z,57.10
2022-12-16T01:14:02.534Z,54.60
2022-12-16T01:15:07.494Z,53.10
2022-12-16T01:16:09.764Z,56.30
2022-12-16T01:17:11.429Z,51.90
2022-12-16T01:18:13.080Z,54.80
2022-12-16T01:19:14.998Z,53.60
2022-12-16T01:20:17.024Z,53.20
2022-12-16T01:21:18.883Z,55.90
2022-12-16T01:22:21.822Z,53.60
2022-12-16T01:23:24.046Z,54.80
2022-12-16T01:24:25.704Z,58.30
2022-12-16T01:25:27.617Z,54.00
2022-12-16T01:26:29.595Z,55.70
2022-12-16T01:27:31.331Z,56.80
2022-12-16T01:28:33.032Z,56.70
2022-12-16T01:29:34.648Z,53.40
2022-12-16T01:30:36.318Z,58.70
2022-12-16T01:31:38.211Z,55.80
2022-12-16T01:32:40.033Z,60.30
2022-12-16T01:33:41.628Z,56.40
2022-12-16T01:34:46.273Z,57.50
2022-12-16T01:36:01.711Z,56.50
2022-12-16T01:37:03.507Z,60.00
2022-12-16T01:38:05.189Z,59.90
2022-12-16T01:39:09.087Z,56.30
2022-12-16T01:40:21.636Z,57.70
2022-12-16T01:41:23.511Z,57.80
2022-12-16T01:42:29.526Z,55.90
2022-12-16T01:43:34.560Z,53.40
2022-12-16T01:44:36.929Z,56.20
2022-12-16T01:45:38.759Z,56.40
2022-12-16T01:46:41.493Z,58.30
2022-12-16T01:47:43.252Z,55.90
2022-12-16T01:49:00.043Z,54.40
2022-12-16T01:50:06.415Z,58.60
2022-12-16T01:51:17.985Z,54.60
2022-12-16T01:52:23.427Z,57.60
2022-12-16T01:53:25.758Z,55.40
2022-12-16T01:55:08.682Z,60.40
2022-12-16T01:56:15.562Z,55.60
2022-12-16T01:57:25.003Z,53.10
2022-12-16T01:58:34.322Z,54.50
2022-12-16T01:59:39.630Z,55.50
2022-12-16T02:00:41.400Z,56.90
2022-12-16T02:01:43.948Z,57.70
2022-12-16T02:02:47.356Z,49.80
2022-12-16T02:03:55.785Z,47.80
2022-12-16T02:05:30.120Z,53.10
2022-12-16T02:06:32.307Z,53.10
2022-12-16T02:07:34.024Z,53.80
2022-12-16T02:08:35.851Z,55.60
2022-12-16T02:09:37.716Z,57.10
2022-12-16T02:10:42.384Z,52.50
2022-12-16T02:11:46.748Z,52.30
2022-12-16T02:13:05.220Z,53.20
2022-12-16T02:14:19.542Z,49.20
2022-12-16T02:15:36.789Z,52.50
2022-12-16T02:16:41.641Z,53.60
2022-12-16T02:18:01.961Z,55.20
2022-12-16T02:19:12.751Z,56.60
2022-12-16T02:20:24.729Z,61.30
2022-12-16T02:21:32.481Z,58.10
2022-12-16T02:22:34.049Z,55.00
2022-12-16T02:23:38.725Z,52.20
2022-12-16T02:24:55.758Z,49.10
2022-12-16T02:26:39.316Z,58.40
2022-12-16T02:27:59.457Z,53.30
2022-12-16T02:29:13.300Z,57.30
2022-12-16T02:31:55.314Z,57.20
2022-12-16T02:33:16.074Z,54.10
2022-12-16T02:34:56.624Z,58.70
2022-12-16T02:36:11.165Z,58.10
2022-12-16T02:37:28.005Z,56.00
2022-12-16T02:38:56.343Z,55.60
2022-12-16T02:40:06.182Z,54.90
2022-12-16T02:41:25.795Z,60.00
2022-12-16T02:42:53.297Z,58.20
2022-12-16T02:44:06.148Z,62.90
2022-12-16T02:45:27.808Z,60.50
2022-12-16T02:46:34.961Z,59.40
2022-12-16T02:47:36.677Z,58.80
2022-12-16T02:48:38.313Z,60.70
2022-12-16T02:49:54.497Z,57.90
2022-12-16T02:50:56.282Z,55.90
2022-12-16T02:52:00.327Z,57.60
2022-12-16T02:53:03.832Z,57.00
2022-12-16T02:54:09.009Z,59.30
2022-12-16T02:55:11.290Z,59.50
2022-12-16T02:56:37.536Z,58.50
2022-12-16T02:57:59.067Z,62.70
2022-12-16T02:59:15.433Z,57.30
2022-12-16T03:00:22.090Z,58.50
2022-12-16T03:01:36.666Z,60.30
2022-12-16T03:02:50.521Z,64.60
2022-12-16T03:04:08.919Z,59.80
2022-12-16T03:05:24.013Z,60.00
2022-12-16T03:06:29.085Z,64.80
2022-12-16T03:07:33.648Z,66.20
2022-12-16T03:08:40.405Z,61.70
2022-12-16T03:09:46.156Z,59.00
2022-12-16T03:10:54.597Z,64.90
2022-12-16T03:12:02.612Z,64.20
2022-12-16T03:13:06.143Z,63.40
2022-12-16T03:14:12.678Z,61.50
2022-12-16T03:15:20.315Z,63.30
2022-12-16T03:16:26.944Z,66.70
2022-12-16T03:17:28.879Z,63.80
2022-12-16T03:18:31.999Z,64.10
2022-12-16T03:19:35.408Z,60.80
2022-12-16T03:20:50.769Z,66.80
2022-12-16T03:22:28.975Z,65.00
2022-12-16T03:23:37.513Z,64.90
2022-12-16T03:24:40.699Z,63.30
2022-12-16T03:25:45.206Z,65.00
2022-12-16T03:27:07.313Z,64.40
2022-12-16T03:28:35.111Z,63.80
2022-12-16T03:30:03.138Z,64.60
2022-12-16T03:31:17.318Z,66.40
2022-12-16T03:32:38.641Z,69.80
2022-12-16T03:33:50.593Z,64.20
2022-12-16T03:35:24.222Z,65.40
2022-12-16T03:36:27.207Z,71.20
2022-12-16T03:37:33.234Z,70.60
2022-12-16T03:38:37.682Z,68.70
2022-12-16T03:39:51.405Z,65.80
2022-12-16T03:40:56.809Z,68.40
2022-12-16T03:42:01.927Z,65.70
2022-12-16T03:43:04.871Z,63.80
2022-12-16T03:44:07.844Z,65.50
2022-12-16T03:45:18.752Z,66.20
2022-12-16T03:46:20.803Z,69.10
2022-12-16T03:47:26.954Z,66.50
2022-12-16T03:48:29.104Z,66.80
2022-12-16T03:49:30.704Z,59.00
2022-12-16T03:50:34.622Z,63.90
2022-12-16T03:51:36.293Z,62.00
2022-12-16T03:52:37.978Z,59.70
2022-12-16T03:53:39.629Z,58.70
2022-12-16T03:54:41.546Z,60.10
2022-12-16T03:55:43.484Z,64.30
2022-12-16T03:56:45.674Z,67.80
2022-12-16T03:57:47.328Z,63.30
2022-12-16T03:58:49.202Z,66.00
2022-12-16T03:59:50.866Z,66.40
2022-12-16T04:00:52.664Z,65.80
2022-12-16T04:01:54.473Z,63.20
2022-12-16T04:02:56.445Z,62.60
2022-12-16T04:03:58.502Z,66.30
2022-12-16T04:05:00.260Z,61.60
2022-12-16T04:06:02.095Z,64.60
2022-12-16T04:07:23.737Z,63.80
2022-12-16T04:08:25.445Z,64.30
2022-12-16T04:09:27.056Z,63.10
2022-12-16T04:10:47.689Z,65.80
2022-12-16T04:12:07.890Z,62.50
2022-12-16T04:13:29.442Z,60.80
2022-12-16T04:14:53.433Z,62.90
2022-12-16T04:16:14.421Z,66.20
2022-12-16T04:18:57.088Z,70.20
2022-12-16T04:20:17.599Z,63.40
2022-12-16T04:21:38.127Z,63.10
2022-12-16T04:23:01.782Z,68.40
2022-12-16T04:24:18.868Z,64.70
2022-12-16T04:25:23.927Z,64.90
2022-12-16T04:26:25.712Z,65.70
2022-12-16T04:27:28.778Z,63.60
2022-12-16T04:28:30.711Z,68.20
2022-12-16T04:29:33.089Z,68.50
2022-12-16T04:30:35.271Z,63.40
2022-12-16T04:31:37.028Z,66.10
2022-12-16T04:32:57.887Z,64.10
2022-12-16T04:34:18.352Z,67.80
2022-12-16T04:35:38.894Z,64.20
2022-12-16T04:36:59.039Z,65.30
2022-12-16T04:38:19.576Z,66.60
2022-12-16T04:39:39.563Z,62.60
2022-12-16T04:41:00.190Z,64.40
2022-12-16T04:42:20.639Z,67.20
2022-12-16T04:43:41.132Z,63.00
2022-12-16T04:45:01.403Z,57.60
2022-12-16T04:46:22.325Z,59.90
2022-12-16T04:49:04.650Z,74.30
2022-12-16T04:50:25.566Z,64.50
2022-12-16T04:51:46.027Z,67.60
2022-12-16T04:53:09.354Z,62.70
2022-12-16T04:54:29.784Z,62.60
2022-12-16T04:55:50.250Z,66.20
2022-12-16T04:57:10.822Z,66.30
2022-12-16T04:58:30.922Z,66.30
2022-12-16T04:59:51.329Z,69.00
2022-12-16T05:01:12.038Z,75.10
2022-12-16T05:02:37.008Z,66.40
2022-12-16T05:04:17.130Z,67.10
2022-12-16T05:05:37.723Z,69.50
2022-12-16T05:06:58.321Z,75.90
2022-12-16T05:08:19.144Z,68.80
2022-12-16T05:09:39.327Z,70.10
2022-12-16T05:10:59.448Z,74.00
2022-12-16T05:12:19.746Z,70.00
2022-12-16T05:13:40.085Z,74.30
2022-12-16T05:15:00.296Z,72.90
2022-12-16T05:16:20.553Z,75.10
2022-12-16T05:17:40.987Z,74.90
2022-12-16T05:19:01.573Z,68.50
2022-12-16T05:20:22.404Z,72.30
2022-12-16T05:21:42.727Z,68.50
2022-12-16T05:23:02.876Z,73.60
2022-12-16T05:24:23.446Z,71.80
2022-12-16T05:25:44.214Z,74.60
2022-12-16T05:28:25.612Z,71.20
2022-12-16T05:29:45.759Z,71.00
2022-12-16T05:31:06.596Z,71.10
2022-12-16T05:32:27.090Z,70.40
2022-12-16T05:33:47.609Z,73.50
2022-12-16T05:36:29.017Z,69.50
2022-12-16T05:37:49.373Z,71.00
2022-12-16T05:39:10.209Z,71.10
2022-12-16T05:40:31.239Z,79.20
2022-12-16T05:43:16.556Z,80.80
2022-12-16T05:44:37.387Z,78.30
2022-12-16T05:45:58.934Z,83.60
2022-12-16T05:47:19.651Z,79.80
2022-12-16T05:48:44.473Z,81.40
2022-12-16T05:50:07.926Z,84.10
2022-12-16T05:51:29.170Z,80.80
2022-12-16T05:52:49.817Z,85.90
2022-12-16T05:54:10.273Z,72.40
2022-12-16T05:55:34.121Z,84.90
2022-12-16T05:56:55.055Z,80.70
2022-12-16T05:58:15.446Z,79.50
2022-12-16T05:59:35.856Z,82.20
2022-12-16T06:00:55.918Z,83.90
2022-12-16T06:02:16.791Z,82.70
2022-12-16T06:03:38.210Z,78.40
2022-12-16T06:04:58.863Z,83.30
2022-12-16T06:06:19.313Z,84.80
2022-12-16T06:07:40.040Z,85.30
2022-12-16T06:09:00.383Z,84.80
2022-12-16T06:10:20.817Z,81.50
2022-12-16T06:11:40.940Z,79.10
2022-12-16T06:13:05.158Z,87.10
2022-12-16T06:14:25.887Z,81.80
2022-12-16T06:15:46.152Z,83.40
2022-12-16T06:17:06.467Z,89.40
2022-12-16T06:18:26.909Z,82.20
2022-12-16T06:19:47.239Z,87.40
2022-12-16T06:21:07.847Z,83.00
2022-12-16T06:22:28.343Z,84.60
2022-12-16T06:23:49.336Z,83.40
2022-12-16T06:26:30.280Z,81.40
2022-12-16T06:27:50.573Z,83.00
2022-12-16T06:29:11.092Z,79.40
2022-12-16T06:30:31.380Z,76.80
2022-12-16T06:31:51.812Z,78.00
2022-12-16T06:33:12.188Z,76.20
2022-12-16T06:34:33.064Z,74.80
2022-12-16T06:37:13.702Z,83.70
2022-12-16T06:38:34.030Z,82.00
2022-12-16T06:39:54.580Z,78.90
2022-12-16T06:41:14.900Z,77.50
2022-12-16T06:42:35.650Z,81.30
2022-12-16T06:45:16.586Z,78.90
2022-12-16T06:46:37.011Z,77.10
2022-12-16T06:47:58.620Z,78.10
2022-12-16T06:49:19.094Z,83.40
2022-12-16T06:50:44.696Z,78.10
2022-12-16T06:52:05.306Z,82.20
2022-12-16T06:53:25.607Z,80.80
2022-12-16T06:54:45.825Z,74.90
2022-12-16T06:56:06.511Z,83.80
2022-12-16T06:57:26.874Z,79.80
2022-12-16T06:58:47.152Z,82.10
2022-12-16T07:00:07.448Z,84.10
2022-12-16T07:01:28.075Z,84.40
2022-12-16T07:02:48.546Z,82.20
2022-12-16T07:05:29.781Z,79.50
2022-12-16T07:06:50.052Z,75.70
2022-12-16T07:08:10.522Z,80.90
2022-12-16T07:09:30.759Z,77.10
2022-12-16T07:10:51.388Z,80.00
2022-12-16T07:12:11.855Z,81.60
2022-12-16T07:13:36.579Z,80.60
2022-12-16T07:14:57.285Z,81.80
2022-12-16T07:17:38.394Z,76.80
2022-12-16T07:18:58.986Z,85.10
2022-12-16T07:20:18.908Z,80.60
2022-12-16T07:21:38.979Z,83.30
2022-12-16T07:23:11.903Z,78.60
2022-12-16T07:24:36.630Z,81.70
2022-12-16T07:26:07.235Z,78.00
2022-12-16T07:27:27.693Z,84.10
2022-12-16T07:28:48.179Z,86.90
2022-12-16T07:30:08.570Z,82.40
2022-12-16T07:31:29.153Z,76.50
2022-12-16T07:32:49.273Z,77.10
2022-12-16T07:34:10.212Z,80.30
2022-12-16T07:35:31.000Z,77.90
2022-12-16T07:36:51.346Z,82.00
2022-12-16T07:38:11.381Z,79.40
2022-12-16T07:39:32.107Z,76.70
2022-12-16T07:40:52.850Z,77.00
2022-12-16T07:42:12.959Z,79.80
2022-12-16T07:43:33.685Z,79.20
2022-12-16T07:44:54.247Z,79.50
2022-12-16T07:46:14.566Z,74.10
2022-12-16T07:47:35.081Z,71.80
2022-12-16T07:48:55.460Z,76.00
2022-12-16T07:50:16.450Z,77.00
2022-12-16T07:51:36.854Z,75.10
2022-12-16T07:53:13.676Z,74.10
2022-12-16T07:54:34.187Z,78.20
2022-12-16T07:55:54.637Z,81.80
2022-12-16T07:57:16.074Z,78.20
2022-12-16T07:58:36.497Z,78.40
2022-12-16T07:59:56.532Z,71.60
2022-12-16T08:01:18.752Z,55.90
2022-12-16T08:02:39.181Z,74.00
2022-12-16T08:03:59.849Z,73.20
2022-12-16T08:05:20.748Z,81.10
2022-12-16T08:08:02.135Z,82.20
2022-12-16T08:09:22.561Z,78.30
2022-12-16T08:10:43.147Z,81.10
2022-12-16T08:12:03.847Z,81.80
2022-12-16T08:13:26.135Z,84.00
2022-12-16T08:14:46.370Z,83.80
2022-12-16T08:16:06.480Z,82.00
2022-12-16T08:17:47.139Z,86.40
2022-12-16T08:19:11.035Z,87.30
2022-12-16T08:20:31.847Z,85.10
2022-12-16T08:21:52.069Z,85.80
2022-12-16T08:23:12.595Z,78.90
2022-12-16T08:24:33.303Z,84.50
2022-12-16T08:27:16.055Z,90.90
2022-12-16T08:29:57.081Z,90.70
2022-12-16T08:31:17.471Z,90.70
2022-12-16T08:32:37.854Z,89.90
2022-12-16T08:33:58.321Z,90.10
2022-12-16T08:35:19.197Z,88.00
2022-12-16T08:36:39.879Z,88.40
2022-12-16T08:38:00.508Z,89.40
2022-12-16T08:39:20.927Z,87.10
2022-12-16T08:40:41.246Z,87.30
2022-12-16T08:42:02.058Z,84.00
2022-12-16T08:44:43.298Z,80.70
2022-12-16T08:47:24.334Z,89.90
2022-12-16T08:48:44.587Z,86.20
2022-12-16T08:50:04.624Z,83.00
2022-12-16T08:51:25.584Z,91.90
2022-12-16T08:52:45.834Z,92.40
2022-12-16T08:54:20.099Z,90.10
2022-12-16T08:55:40.767Z,90.00
2022-12-16T08:57:01.358Z,90.50
2022-12-16T08:58:21.685Z,87.60
2022-12-16T08:59:42.144Z,85.20
2022-12-16T09:01:07.051Z,92.30
2022-12-16T09:02:29.766Z,82.00
2022-12-16T09:03:50.796Z,86.30
2022-12-16T09:06:37.004Z,85.10
2022-12-16T09:08:00.565Z,88.70
2022-12-16T09:09:20.936Z,89.40
2022-12-16T09:10:41.647Z,85.70
2022-12-16T09:13:27.441Z,88.30
2022-12-16T09:14:47.509Z,85.50
2022-12-16T09:16:07.790Z,91.70
2022-12-16T09:17:30.914Z,81.90
2022-12-16T09:20:11.552Z,85.10
2022-12-16T09:21:33.443Z,87.70
2022-12-16T09:22:54.324Z,81.90
2022-12-16T09:24:15.934Z,86.20
2022-12-16T09:26:56.557Z,89.00
2022-12-16T09:28:17.094Z,89.30
2022-12-16T09:29:41.891Z,82.40
2022-12-16T09:31:04.030Z,91.40
2022-12-16T09:32:24.451Z,85.30
2022-12-16T09:33:44.942Z,88.70
2022-12-16T09:35:10.046Z,94.60
2022-12-16T09:36:46.980Z,80.20
2022-12-16T09:38:07.637Z,95.00
2022-12-16T09:39:28.093Z,94.70
2022-12-16T09:40:48.552Z,90.10
2022-12-16T09:42:14.858Z,92.90
2022-12-16T09:44:02.722Z,83.20
2022-12-16T09:45:41.704Z,89.80
2022-12-16T09:47:08.710Z,90.30
2022-12-16T09:49:11.146Z,90.00
2022-12-16T09:50:41.292Z,90.50
2022-12-16T09:52:04.246Z,90.30
2022-12-16T09:53:31.414Z,95.70
2022-12-16T09:54:56.728Z,89.70
2022-12-16T09:56:20.436Z,87.70
2022-12-16T09:57:43.273Z,93.10
2022-12-16T09:59:14.634Z,93.30
2022-12-16T10:00:41.482Z,93.00
2022-12-16T10:02:02.799Z,89.40
2022-12-16T10:03:34.919Z,89.60
2022-12-16T10:04:55.924Z,98.40
2022-12-16T10:07:49.953Z,87.50
2022-12-16T10:09:20.195Z,94.80
2022-12-16T10:11:30.843Z,102.10
2022-12-16T10:13:14.409Z,88.80
2022-12-16T10:14:49.282Z,92.30
2022-12-16T10:16:18.638Z,91.20
2022-12-16T10:17:43.946Z,98.80
2022-12-16T10:19:28.182Z,95.10
2022-12-16T10:20:52.055Z,95.30
2022-12-16T10:22:31.075Z,99.00
2022-12-16T10:24:23.145Z,95.90
2022-12-16T10:26:05.604Z,90.90
2022-12-16T10:27:35.290Z,90.30
2022-12-16T10:29:07.461Z,84.90
2022-12-16T10:30:32.661Z,89.40
2022-12-16T10:31:55.197Z,90.10
2022-12-16T10:33:17.986Z,92.80
2022-12-16T10:34:50.807Z,93.60
2022-12-16T10:36:13.842Z,93.80
2022-12-16T10:37:42.387Z,92.60
2022-12-16T10:39:18.274Z,93.00
2022-12-16T10:40:44.608Z,90.90
2022-12-16T10:42:10.644Z,85.60
2022-12-16T10:43:39.014Z,93.90
2022-12-16T10:45:13.694Z,91.30
2022-12-16T10:46:40.640Z,92.20
2022-12-16T10:48:00.933Z,95.90
2022-12-16T10:49:21.742Z,93.20
2022-12-16T10:52:06.883Z,89.80
2022-12-16T10:53:33.961Z,91.20
2022-12-16T10:55:03.628Z,88.20
2022-12-16T10:56:48.638Z,93.90
2022-12-16T10:58:38.865Z,92.00
2022-12-16T10:59:59.661Z,91.50
2022-12-16T11:01:20.416Z,96.00
2022-12-16T11:02:46.529Z,95.00
2022-12-16T11:04:07.533Z,90.60
2022-12-16T11:05:46.590Z,94.40
2022-12-16T11:07:06.965Z,93.80
2022-12-16T11:08:44.790Z,95.00
2022-12-16T11:10:05.362Z,95.60
2022-12-16T11:11:45.434Z,103.60
2022-12-16T11:13:05.734Z,108.80
2022-12-16T11:14:39.882Z,99.70
2022-12-16T11:16:00.565Z,100.40
2022-12-16T11:17:31.423Z,91.40
2022-12-16T11:18:51.864Z,100.70
2022-12-16T11:20:44.481Z,100.60
2022-12-16T11:22:22.207Z,95.70
2022-12-16T11:23:43.796Z,93.70
2022-12-16T11:25:21.461Z,93.20
2022-12-16T11:26:41.945Z,99.10
2022-12-16T11:28:23.073Z,100.10
2022-12-16T11:29:43.807Z,97.80
2022-12-16T11:31:13.772Z,98.40
2022-12-16T11:32:42.610Z,103.70
2022-12-16T11:34:03.966Z,96.50
2022-12-16T11:35:31.674Z,100.00
2022-12-16T11:36:55.944Z,98.60
2022-12-16T11:38:19.393Z,101.20
2022-12-16T11:39:42.251Z,96.70
2022-12-16T11:41:02.777Z,98.10
2022-12-16T11:42:24.160Z,99.60
2022-12-16T11:43:47.212Z,97.90
2022-12-16T11:45:13.843Z,95.30
2022-12-16T11:46:44.522Z,101.70
2022-12-16T11:48:08.959Z,105.30
2022-12-16T11:49:51.160Z,91.50
2022-12-16T11:51:15.447Z,102.20
2022-12-16T11:52:39.238Z,96.60
2022-12-16T11:54:25.946Z,91.40
2022-12-16T11:56:12.495Z,101.20
2022-12-16T11:57:46.791Z,91.30
2022-12-16T11:59:15.857Z,95.60
2022-12-16T12:00:37.603Z,100.00
2022-12-16T12:02:13.965Z,97.80
2022-12-16T12:03:42.750Z,95.60
2022-12-16T12:05:08.637Z,91.40
2022-12-16T12:06:32.274Z,96.20
2022-12-16T12:08:10.895Z,92.30
2022-12-16T12:09:37.348Z,100.00
2022-12-16T12:11:31.746Z,103.20
2022-12-16T12:13:04.412Z,91.90
2022-12-16T12:14:43.702Z,93.90
2022-12-16T12:16:15.826Z,96.00
2022-12-16T12:17:43.006Z,98.50
2022-12-16T12:19:15.409Z,94.10
2022-12-16T12:21:05.464Z,97.60
2022-12-16T12:22:51.002Z,96.80
2022-12-16T12:24:33.119Z,88.70
2022-12-16T12:26:00.619Z,91.90
2022-12-16T12:27:26.062Z,93.00
2022-12-16T12:28:53.133Z,97.90
2022-12-16T12:30:19.585Z,92.40
2022-12-16T12:31:58.671Z,90.80
2022-12-16T12:33:50.136Z,92.50
2022-12-16T12:35:30.685Z,98.10
2022-12-16T12:37:07.792Z,99.10
2022-12-16T12:38:42.400Z,91.50
2022-12-16T12:40:07.068Z,96.00
2022-12-16T12:41:57.020Z,90.40
2022-12-16T12:43:21.617Z,93.20
2022-12-16T12:45:18.823Z,92.40
2022-12-16T12:47:07.522Z,93.70
2022-12-16T12:48:46.725Z,93.90
2022-12-16T12:50:42.969Z,92.60
2022-12-16T12:52:28.991Z,90.00
2022-12-16T12:54:05.344Z,97.80
2022-12-16T12:55:43.406Z,92.40
2022-12-16T12:57:09.341Z,96.20
2022-12-16T12:58:31.324Z,91.00
2022-12-16T13:00:10.608Z,89.80
2022-12-16T13:01:33.330Z,95.30
2022-12-16T13:03:22.521Z,87.30
2022-12-16T13:04:45.872Z,94.00
2022-12-16T13:06:07.166Z,86.00
2022-12-16T13:07:27.946Z,87.30
2022-12-16T13:11:06.114Z,83.90
2022-12-16T13:12:26.869Z,87.30
2022-12-16T13:13:51.313Z,95.20
2022-12-16T13:15:14.562Z,88.60
2022-12-16T13:17:04.736Z,90.40
2022-12-16T13:18:25.075Z,91.30
2022-12-16T13:19:48.241Z,91.70
2022-12-16T13:21:11.375Z,89.50
2022-12-16T13:22:52.223Z,90.70
2022-12-16T13:24:13.120Z,88.00
2022-12-16T13:25:58.033Z,88.10
2022-12-16T13:27:19.698Z,85.30
2022-12-16T13:28:59.679Z,88.20
2022-12-16T13:30:29.225Z,90.60
2022-12-16T13:31:49.839Z,89.00
2022-12-16T13:33:33.808Z,96.40
2022-12-16T13:34:54.906Z,97.80
2022-12-16T13:36:17.762Z,96.50
2022-12-16T13:37:44.685Z,92.00
2022-12-16T13:39:08.133Z,90.80
2022-12-16T13:40:37.553Z,90.50
2022-12-16T13:41:57.534Z,92.00
2022-12-16T13:43:23.319Z,91.00
2022-12-16T13:45:02.582Z,89.00
2022-12-16T13:46:23.367Z,91.80
2022-12-16T13:47:52.504Z,92.70
2022-12-16T13:49:51.862Z,92.30
2022-12-16T13:51:18.605Z,84.10
2022-12-16T13:53:18.982Z,91.80
2022-12-16T13:54:54.193Z,94.70
2022-12-16T13:56:18.640Z,95.80
2022-12-16T13:57:42.842Z,94.60
2022-12-16T13:59:12.311Z,97.90
2022-12-16T14:00:41.757Z,94.40
2022-12-16T14:02:05.576Z,94.20
2022-12-16T14:04:03.206Z,92.90
2022-12-16T14:05:36.097Z,93.90
2022-12-16T14:06:58.177Z,97.30
2022-12-16T14:08:19.407Z,94.10
2022-12-16T14:09:46.289Z,96.20
2022-12-16T14:11:17.085Z,89.60
2022-12-16T14:12:57.353Z,94.50
2022-12-16T14:14:57.079Z,95.20
2022-12-16T14:16:51.186Z,97.80
2022-12-16T14:18:57.917Z,97.70
2022-12-16T14:20:30.480Z,88.50
2022-12-16T14:22:06.886Z,93.70
2022-12-16T14:23:55.874Z,97.40
2022-12-16T14:25:28.064Z,92.90
2022-12-16T14:26:48.959Z,93.10
2022-12-16T14:29:46.069Z,87.90
2022-12-16T14:31:06.314Z,88.10
2022-12-16T14:32:56.001Z,93.10
2022-12-16T14:34:19.273Z,97.10
2022-12-16T14:35:45.115Z,97.10
2022-12-16T14:37:06.205Z,90.90
2022-12-16T14:38:44.777Z,93.00
2022-12-16T14:40:07.367Z,87.80
2022-12-16T14:41:38.797Z,91.40
2022-12-16T14:43:00.137Z,97.00
2022-12-16T14:44:31.454Z,88.80
2022-12-16T14:45:54.526Z,87.60
2022-12-16T14:47:15.338Z,86.80
2022-12-16T14:50:12.715Z,101.00
2022-12-16T14:51:46.669Z,88.60
2022-12-16T14:53:40.580Z,91.40
2022-12-16T14:55:01.479Z,87.90
2022-12-16T14:56:37.606Z,88.90
2022-12-16T14:57:57.927Z,88.20
2022-12-16T14:59:31.600Z,87.40
2022-12-16T15:00:53.859Z,90.50
2022-12-16T15:02:17.037Z,88.10
2022-12-16T15:04:07.553Z,83.50
2022-12-16T15:05:28.906Z,91.60
2022-12-16T15:06:59.686Z,85.10
2022-12-16T15:09:55.916Z,87.60
2022-12-16T15:11:18.593Z,89.60
2022-12-16T15:12:42.083Z,83.00
2022-12-16T15:14:04.081Z,86.80
2022-12-16T15:15:31.624Z,84.80
2022-12-16T15:16:55.165Z,85.30
2022-12-16T15:18:19.894Z,87.20
2022-12-16T15:19:41.966Z,93.80
2022-12-16T15:21:08.844Z,87.70
2022-12-16T15:22:33.644Z,87.50
2022-12-16T15:23:59.153Z,87.50
2022-12-16T15:25:20.330Z,90.90
2022-12-16T15:26:43.870Z,85.70
2022-12-16T15:28:14.726Z,84.20
2022-12-16T15:29:56.470Z,88.80
2022-12-16T15:31:16.764Z,87.90
2022-12-16T15:32:43.313Z,87.90
2022-12-16T15:34:03.706Z,79.90
2022-12-16T15:35:23.963Z,77.70
2022-12-16T15:36:47.933Z,84.90
2022-12-16T15:38:08.322Z,80.10
2022-12-16T15:39:51.556Z,83.90
2022-12-16T15:41:11.710Z,71.80
2022-12-16T15:42:48.974Z,76.80
2022-12-16T15:44:10.588Z,72.60
2022-12-16T15:45:37.804Z,75.00
2022-12-16T15:47:05.005Z,68.90
2022-12-16T15:48:34.757Z,64.50
2022-12-16T15:50:03.514Z,60.90
2022-12-16T15:51:38.403Z,55.20
2022-12-16T15:53:01.785Z,53.20
2022-12-16T15:54:22.933Z,49.50
2022-12-16T15:55:49.574Z,47.70
2022-12-16T15:57:10.031Z,45.10
2022-12-16T15:58:49.667Z,47.30
2022-12-16T16:00:16.427Z,41.50
2022-12-16T16:01:40.328Z,45.60
2022-12-16T16:03:07.105Z,47.90
2022-12-16T16:04:36.474Z,42.80
2022-12-16T16:05:56.762Z,46.60
2022-12-16T16:07:17.393Z,45.30
2022-12-16T16:08:37.805Z,45.10
2022-12-16T16:09:58.435Z,46.10
2022-12-16T16:11:19.745Z,45.20
2022-12-16T16:12:41.695Z,47.40
2022-12-16T16:14:07.202Z,50.40
2022-12-16T16:15:32.654Z,47.40
2022-12-16T16:16:53.305Z,45.80
2022-12-16T16:19:41.997Z,49.70
2022-12-16T16:21:03.476Z,45.80
2022-12-16T16:22:31.877Z,51.90
2022-12-16T16:23:52.878Z,50.60
2022-12-16T16:26:37.151Z,47.40
2022-12-16T16:27:58.001Z,46.00
2022-12-16T16:29:18.719Z,44.70
2022-12-16T16:30:39.434Z,45.30
2022-12-16T16:32:04.091Z,41.60
2022-12-16T16:33:25.048Z,42.50
2022-12-16T16:34:46.473Z,39.40
2022-12-16T16:36:09.483Z,43.40
2022-12-16T16:37:36.645Z,40.00
2022-12-16T16:38:57.190Z,41.70
2022-12-16T16:40:18.133Z,42.80
2022-12-16T16:41:38.423Z,41.20
2022-12-16T16:42:58.650Z,44.10
2022-12-16T16:44:20.041Z,40.90
2022-12-16T16:45:41.081Z,45.60
2022-12-16T16:48:31.396Z,43.90
2022-12-16T16:49:57.738Z,44.10
2022-12-16T16:51:19.531Z,47.20
2022-12-16T16:52:42.918Z,47.20
2022-12-16T16:54:03.961Z,46.70
2022-12-16T16:55:24.972Z,48.00
2022-12-16T16:56:47.097Z,47.80
2022-12-16T16:58:07.840Z,48.50
2022-12-16T17:00:50.704Z,48.20
2022-12-16T17:02:33.783Z,47.20
2022-12-16T17:03:58.253Z,41.60
2022-12-16T17:06:38.843Z,43.80
2022-12-16T17:07:59.156Z,41.70
2022-12-16T17:09:19.474Z,44.60
2022-12-16T17:10:39.488Z,43.00
2022-12-16T17:12:00.090Z,43.40
2022-12-16T17:14:41.011Z,39.50
2022-12-16T17:16:01.244Z,43.50
2022-12-16T17:17:22.917Z,46.70
2022-12-16T17:18:47.804Z,45.70
2022-12-16T17:20:10.884Z,42.20
2022-12-16T17:21:32.017Z,40.40
2022-12-16T17:22:52.520Z,41.20
2022-12-16T17:25:34.052Z,38.80
2022-12-16T17:28:19.049Z,39.50
2022-12-16T17:29:42.661Z,42.50
2022-12-16T17:31:03.663Z,40.60
2022-12-16T17:32:24.222Z,40.80
2022-12-16T17:33:44.531Z,39.00
2022-12-16T17:35:05.096Z,41.70
2022-12-16T17:36:32.024Z,47.00
2022-12-16T17:37:52.584Z,44.90
2022-12-16T17:39:12.785Z,41.50
2022-12-16T17:40:33.629Z,47.00
2022-12-16T17:43:14.209Z,47.30
2022-12-16T17:44:34.753Z,41.90
2022-12-16T17:45:54.716Z,39.10
2022-12-16T17:47:15.162Z,34.60
2022-12-16T17:48:35.318Z,36.60
2022-12-16T17:49:55.725Z,35.20
2022-12-16T17:51:22.361Z,37.40
2022-12-16T17:52:42.814Z,37.70
2022-12-16T17:54:09.723Z,36.70
2022-12-16T17:55:35.145Z,41.30
2022-12-16T17:56:55.882Z,42.00
2022-12-16T17:58:16.493Z,43.10
2022-12-16T17:59:36.869Z,42.60
2022-12-16T18:00:57.717Z,44.00
2022-12-16T18:02:18.943Z,42.20
2022-12-16T18:03:39.970Z,46.90
2022-12-16T18:05:01.362Z,44.70
2022-12-16T18:06:22.776Z,46.40
2022-12-16T18:07:43.751Z,45.20
2022-12-16T18:09:03.935Z,44.90
2022-12-16T18:10:24.776Z,42.10
2022-12-16T18:13:06.619Z,42.50
2022-12-16T18:14:28.142Z,39.20
2022-12-16T18:17:10.226Z,43.40
2022-12-16T18:18:34.084Z,45.90
2022-12-16T18:19:54.579Z,47.00
2022-12-16T18:21:15.247Z,43.30
2022-12-16T18:22:35.531Z,45.60
2022-12-16T18:23:56.533Z,47.70
2022-12-16T18:26:44.156Z,41.80
2022-12-16T18:28:04.176Z,44.60
2022-12-16T18:29:25.211Z,43.20
2022-12-16T18:32:07.350Z,38.20
2022-12-16T18:33:28.929Z,36.10
2022-12-16T18:34:49.749Z,37.20
2022-12-16T18:36:09.787Z,34.20
2022-12-16T18:37:33.004Z,35.50
2022-12-16T18:38:57.171Z,32.80
2022-12-16T18:41:50.969Z,36.70
2022-12-16T18:43:19.023Z,34.50
2022-12-16T18:44:39.323Z,33.50
2022-12-16T18:46:00.127Z,37.20
2022-12-16T18:47:22.574Z,35.90
2022-12-16T18:48:45.780Z,34.20
2022-12-16T18:50:09.223Z,36.20
2022-12-16T18:51:30.406Z,36.90
2022-12-16T18:52:51.339Z,34.20
2022-12-16T18:54:12.683Z,30.30
2022-12-16T18:55:36.939Z,31.30
2022-12-16T18:56:58.415Z,27.80
2022-12-16T18:59:59.516Z,31.80
2022-12-16T19:01:21.603Z,34.10
2022-12-16T19:02:42.988Z,36.40
2022-12-16T19:04:03.218Z,35.50
2022-12-16T19:05:23.538Z,35.80
2022-12-16T19:06:44.176Z,35.10
2022-12-16T19:09:29.237Z,28.70
2022-12-16T19:10:49.527Z,32.00
2022-12-16T19:12:09.841Z,28.60
2022-12-16T19:13:34.826Z,28.40
2022-12-16T19:14:55.319Z,28.80
2022-12-16T19:16:17.523Z,32.80
2022-12-16T19:17:37.806Z,28.50
2022-12-16T19:18:58.853Z,32.10
2022-12-16T19:21:39.585Z,25.70